sensor_id;sensor_type;location;lat;lon;timestamp;pressure;altitude;pressure_sealevel;temperature;humidity
9421;BME280;4749;51.398;5.466;2023-05-19T00:01:28;102391.53;;;12.47;86.20
9421;BME280;4749;51.398;5.466;2023-05-19T00:03:58;102384.38;;;12.41;87.28
9421;BME280;4749;51.398;5.466;2023-05-19T00:06:30;102387.88;;;12.38;87.45
9421;BME280;4749;51.398;5.466;2023-05-19T00:09:06;102381.63;;;12.35;88.33
9421;BME280;4749;51.398;5.466;2023-05-19T00:11:36;102385.97;;;12.31;88.52
9421;BME280;4749;51.398;5.466;2023-05-19T00:14:06;102385.84;;;12.27;89.46
9421;BME280;4749;51.398;5.466;2023-05-19T00:16:34;102388.41;;;12.22;90.33
9421;BME280;4749;51.398;5.466;2023-05-19T00:19:03;102379.59;;;12.20;90.95
9421;BME280;4749;51.398;5.466;2023-05-19T00:21:31;102378.63;;;12.17;91.46
9421;BME280;4749;51.398;5.466;2023-05-19T00:23:58;102380.34;;;12.15;92.40
9421;BME280;4749;51.398;5.466;2023-05-19T00:26:26;102378.50;;;12.10;93.00
9421;BME280;4749;51.398;5.466;2023-05-19T00:28:53;102378.44;;;12.07;93.90
9421;BME280;4749;51.398;5.466;2023-05-19T00:31:20;102371.34;;;12.03;94.90
9421;BME280;4749;51.398;5.466;2023-05-19T00:33:48;102373.88;;;12.00;95.45
9421;BME280;4749;51.398;5.466;2023-05-19T00:36:15;102362.44;;;11.98;95.95
9421;BME280;4749;51.398;5.466;2023-05-19T00:38:42;102360.63;;;11.96;97.64
9421;BME280;4749;51.398;5.466;2023-05-19T00:41:09;102357.91;;;11.93;97.68
9421;BME280;4749;51.398;5.466;2023-05-19T00:43:36;102351.69;;;11.89;99.07
9421;BME280;4749;51.398;5.466;2023-05-19T00:46:03;102346.31;;;11.84;100.00
9421;BME280;4749;51.398;5.466;2023-05-19T00:48:31;102346.25;;;11.81;100.00
9421;BME280;4749;51.398;5.466;2023-05-19T00:50:59;102349.75;;;11.80;100.00
9421;BME280;4749;51.398;5.466;2023-05-19T00:53:32;102342.59;;;11.76;100.00
9421;BME280;4749;51.398;5.466;2023-05-19T00:56:00;102341.66;;;11.74;100.00
9421;BME280;4749;51.398;5.466;2023-05-19T00:58:30;102343.41;;;11.72;100.00
9421;BME280;4749;51.398;5.466;2023-05-19T01:00:59;102346.88;;;11.70;100.00
9421;BME280;4749;51.398;5.466;2023-05-19T01:03:32;102338.00;;;11.68;100.00
9421;BME280;4749;51.398;5.466;2023-05-19T01:06:03;102343.25;;;11.66;100.00
9421;BME280;4749;51.398;5.466;2023-05-19T01:08:36;102345.84;;;11.65;100.00
9421;BME280;4749;51.398;5.466;2023-05-19T01:11:07;102347.56;;;11.63;100.00
9421;BME280;4749;51.398;5.466;2023-05-19T01:13:35;102347.50;;;11.60;100.00
9421;BME280;4749;51.398;5.466;2023-05-19T01:16:27;102351.84;;;11.57;100.00
9421;BME280;4749;51.398;5.466;2023-05-19T01:29:02;102352.38;;;11.43;100.00
9421;BME280;4749;51.398;5.466;2023-05-19T01:31:36;102350.50;;;11.37;100.00
9421;BME280;4749;51.398;5.466;2023-05-19T01:34:05;102353.94;;;11.35;100.00
9421;BME280;4749;51.398;5.466;2023-05-19T01:36:33;102360.03;;;11.32;100.00
9421;BME280;4749;51.398;5.466;2023-05-19T01:39:02;102358.19;;;11.28;100.00
9421;BME280;4749;51.398;5.466;2023-05-19T01:41:30;102353.72;;;11.25;100.00
9421;BME280;4749;51.398;5.466;2023-05-19T01:43:59;102358.03;;;11.22;100.00
9421;BME280;4749;51.398;5.466;2023-05-19T01:46:26;102359.72;;;11.18;100.00
9421;BME280;4749;51.398;5.466;2023-05-19T01:48:54;102352.59;;;11.14;100.00
9421;BME280;4749;51.398;5.466;2023-05-19T01:51:21;102356.91;;;11.11;100.00
9421;BME280;4749;51.398;5.466;2023-05-19T01:53:48;102355.88;;;11.06;100.00
9421;BME280;4749;51.398;5.466;2023-05-19T01:56:33;102339.97;;;11.01;100.00
9421;BME280;4749;51.398;5.466;2023-05-19T01:59:26;102343.34;;;10.95;100.00
9421;BME280;4749;51.398;5.466;2023-05-19T02:01:59;102341.50;;;10.93;100.00
9421;BME280;4749;51.398;5.466;2023-05-19T02:04:42;102339.69;;;10.89;100.00
9421;BME280;4749;51.398;5.466;2023-05-19T02:07:51;102334.25;;;10.83;100.00
9421;BME280;4749;51.398;5.466;2023-05-19T02:10:29;102331.50;;;10.77;100.00
9421;BME280;4749;51.398;5.466;2023-05-19T02:13:00;102341.94;;;10.75;100.00
9421;BME280;4749;51.398;5.466;2023-05-19T02:15:37;102339.25;;;10.72;100.00
9421;BME280;4749;51.398;5.466;2023-05-19T02:18:09;102336.56;;;10.69;100.00
9421;BME280;4749;51.398;5.466;2023-05-19T02:20:38;102335.53;;;10.64;100.00
9421;BME280;4749;51.398;5.466;2023-05-19T02:23:06;102331.94;;;10.60;100.00
9421;BME280;4749;51.398;5.466;2023-05-19T02:25:33;102330.09;;;10.58;100.00
9421;BME280;4749;51.398;5.466;2023-05-19T02:28:00;102325.66;;;10.55;100.00
9421;BME280;4749;51.398;5.466;2023-05-19T02:30:27;102330.00;;;10.53;100.00
9421;BME280;4749;51.398;5.466;2023-05-19T02:32:54;102331.69;;;10.51;100.00
9421;BME280;4749;51.398;5.466;2023-05-19T02:35:22;102321.06;;;10.47;100.00
9421;BME280;4749;51.398;5.466;2023-05-19T02:37:49;102327.16;;;10.46;100.00
9421;BME280;4749;51.398;5.466;2023-05-19T02:40:16;102324.38;;;10.41;100.00
9421;BME280;4749;51.398;5.466;2023-05-19T02:42:44;102321.72;;;10.39;100.00
9421;BME280;4749;51.398;5.466;2023-05-19T02:45:11;102319.06;;;10.38;100.00
9421;BME280;4749;51.398;5.466;2023-05-19T02:47:38;102316.41;;;10.36;100.00
9421;BME280;4749;51.398;5.466;2023-05-19T02:50:07;102324.28;;;10.36;100.00
9421;BME280;4749;51.398;5.466;2023-05-19T02:52:35;102318.03;;;10.33;100.00
9421;BME280;4749;51.398;5.466;2023-05-19T02:55:02;102319.75;;;10.31;100.00
9421;BME280;4749;51.398;5.466;2023-05-19T02:57:29;102318.78;;;10.27;100.00
9421;BME280;4749;51.398;5.466;2023-05-19T02:59:57;102322.31;;;10.28;100.00
9421;BME280;4749;51.398;5.466;2023-05-19T03:02:24;102327.44;;;10.25;100.00
9421;BME280;4749;51.398;5.466;2023-05-19T03:04:51;102320.41;;;10.24;100.00
9421;BME280;4749;51.398;5.466;2023-05-19T03:07:19;102315.94;;;10.21;100.00
9421;BME280;4749;51.398;5.466;2023-05-19T03:09:50;102311.44;;;10.17;100.00
9421;BME280;4749;51.398;5.466;2023-05-19T03:12:18;102317.53;;;10.16;100.00
9421;BME280;4749;51.398;5.466;2023-05-19T03:14:45;102312.25;;;10.14;100.00
9421;BME280;4749;51.398;5.466;2023-05-19T03:17:13;102316.56;;;10.12;100.00
9421;BME280;4749;51.398;5.466;2023-05-19T03:19:40;102320.03;;;10.10;100.00
9421;BME280;4749;51.398;5.466;2023-05-19T03:22:07;102315.53;;;10.07;100.00
9421;BME280;4749;51.398;5.466;2023-05-19T03:24:35;102321.63;;;10.05;100.00
9421;BME280;4749;51.398;5.466;2023-05-19T03:27:03;102322.47;;;10.04;100.00
9421;BME280;4749;51.398;5.466;2023-05-19T03:29:31;102324.16;;;10.02;100.00
9421;BME280;4749;51.398;5.466;2023-05-19T03:31:58;102323.22;;;10.00;100.00
9421;BME280;4749;51.398;5.466;2023-05-19T03:34:26;102325.81;;;9.98;100.00
9421;BME280;4749;51.398;5.466;2023-05-19T03:36:53;102328.38;;;9.97;100.00
9421;BME280;4749;51.398;5.466;2023-05-19T03:39:20;102329.25;;;9.96;100.00
9421;BME280;4749;51.398;5.466;2023-05-19T03:41:47;102324.72;;;9.92;100.00
9421;BME280;4749;51.398;5.466;2023-05-19T03:44:14;102328.28;;;9.92;100.00
9421;BME280;4749;51.398;5.466;2023-05-19T03:46:41;102329.97;;;9.92;100.00
9421;BME280;4749;51.398;5.466;2023-05-19T03:49:08;102335.34;;;9.95;100.00
9421;BME280;4749;51.398;5.466;2023-05-19T03:51:37;102335.31;;;9.93;100.00
9421;BME280;4749;51.398;5.466;2023-05-19T03:54:04;102337.03;;;9.93;100.00
9421;BME280;4749;51.398;5.466;2023-05-19T03:56:31;102345.81;;;9.93;100.00
9421;BME280;4749;51.398;5.466;2023-05-19T03:58:59;102341.44;;;9.94;100.00
9421;BME280;4749;51.398;5.466;2023-05-19T04:01:26;102338.00;;;9.96;100.00
9421;BME280;4749;51.398;5.466;2023-05-19T04:03:53;102340.72;;;9.99;100.00
9421;BME280;4749;51.398;5.466;2023-05-19T04:06:20;102338.16;;;10.01;100.00
9421;BME280;4749;51.398;5.466;2023-05-19T04:08:47;102332.97;;;10.04;100.00
9421;BME280;4749;51.398;5.466;2023-05-19T04:11:14;102333.06;;;10.07;100.00
9421;BME280;4749;51.398;5.466;2023-05-19T04:13:42;102335.81;;;10.11;100.00
9421;BME280;4749;51.398;5.466;2023-05-19T04:16:10;102334.16;;;10.15;100.00
9421;BME280;4749;51.398;5.466;2023-05-19T04:18:38;102332.53;;;10.19;100.00
9421;BME280;4749;51.398;5.466;2023-05-19T04:21:05;102338.78;;;10.22;100.00
9421;BME280;4749;51.398;5.466;2023-05-19T04:23:34;102342.44;;;10.27;100.00
9421;BME280;4749;51.398;5.466;2023-05-19T04:26:01;102333.91;;;10.36;100.00
9421;BME280;4749;51.398;5.466;2023-05-19T04:28:29;102340.31;;;10.46;100.00
9421;BME280;4749;51.398;5.466;2023-05-19T04:30:56;102339.59;;;10.51;100.00
9421;BME280;4749;51.398;5.466;2023-05-19T04:33:24;102337.03;;;10.54;100.00
9421;BME280;4749;51.398;5.466;2023-05-19T04:35:51;102338.88;;;10.58;100.00
9421;BME280;4749;51.398;5.466;2023-05-19T04:38:18;102339.25;;;10.72;100.00
9421;BME280;4749;51.398;5.466;2023-05-19T04:40:47;102340.50;;;10.86;100.00
9421;BME280;4749;51.398;5.466;2023-05-19T04:43:16;102336.41;;;10.99;100.00
9421;BME280;4749;51.398;5.466;2023-05-19T04:45:45;102343.78;;;11.12;100.00
9421;BME280;4749;51.398;5.466;2023-05-19T04:48:13;102346.66;;;11.23;100.00
9421;BME280;4749;51.398;5.466;2023-05-19T04:50:40;102341.69;;;11.35;100.00
9421;BME280;4749;51.398;5.466;2023-05-19T04:53:08;102336.53;;;11.41;100.00
9421;BME280;4749;51.398;5.466;2023-05-19T04:55:36;102340.28;;;11.51;100.00
9421;BME280;4749;51.398;5.466;2023-05-19T04:58:04;102336.00;;;11.56;100.00
9421;BME280;4749;51.398;5.466;2023-05-19T05:00:32;102337.00;;;11.61;100.00
9421;BME280;4749;51.398;5.466;2023-05-19T05:03:01;102343.28;;;11.68;100.00
9421;BME280;4749;51.398;5.466;2023-05-19T05:05:33;102335.50;;;11.72;100.00
9421;BME280;4749;51.398;5.466;2023-05-19T05:08:01;102340.97;;;11.80;100.00
9421;BME280;4749;51.398;5.466;2023-05-19T05:10:28;102335.88;;;11.89;100.00
9421;BME280;4749;51.398;5.466;2023-05-19T05:12:56;102337.84;;;11.99;100.00
9421;BME280;4749;51.398;5.466;2023-05-19T05:15:24;102338.88;;;12.06;100.00
9421;BME280;4749;51.398;5.466;2023-05-19T05:17:55;102346.97;;;12.17;100.00
9421;BME280;4749;51.398;5.466;2023-05-19T05:20:23;102348.03;;;12.25;100.00
9421;BME280;4749;51.398;5.466;2023-05-19T05:22:50;102348.19;;;12.34;100.00
9421;BME280;4749;51.398;5.466;2023-05-19T05:25:18;102352.78;;;12.44;100.00
9421;BME280;4749;51.398;5.466;2023-05-19T05:27:45;102352.03;;;12.51;100.00
9421;BME280;4749;51.398;5.466;2023-05-19T05:30:13;102354.81;;;12.57;100.00
9421;BME280;4749;51.398;5.466;2023-05-19T05:32:40;102352.19;;;12.59;100.00
9421;BME280;4749;51.398;5.466;2023-05-19T05:35:08;102359.25;;;12.60;100.00
9421;BME280;4749;51.398;5.466;2023-05-19T05:37:35;102359.28;;;12.61;100.00
9421;BME280;4749;51.398;5.466;2023-05-19T05:40:02;102354.03;;;12.63;100.00
9421;BME280;4749;51.398;5.466;2023-05-19T05:42:30;102355.03;;;12.70;100.00
9421;BME280;4749;51.398;5.466;2023-05-19T05:44:57;102357.00;;;12.81;100.00
9421;BME280;4749;51.398;5.466;2023-05-19T05:47:25;102356.38;;;12.96;100.00
9421;BME280;4749;51.398;5.466;2023-05-19T05:49:52;102359.34;;;13.17;100.00
9421;BME280;4749;51.398;5.466;2023-05-19T05:52:20;102349.16;;;13.37;100.00
9421;BME280;4749;51.398;5.466;2023-05-19T05:54:49;102355.59;;;13.58;100.00
9421;BME280;4749;51.398;5.466;2023-05-19T05:57:17;102353.16;;;13.71;100.00
9421;BME280;4749;51.398;5.466;2023-05-19T05:59:44;102355.06;;;13.83;100.00
9421;BME280;4749;51.398;5.466;2023-05-19T06:02:13;102356.06;;;13.93;100.00
9421;BME280;4749;51.398;5.466;2023-05-19T06:04:40;102359.72;;;14.01;100.00
9421;BME280;4749;51.398;5.466;2023-05-19T06:07:07;102353.63;;;14.06;100.00
9421;BME280;4749;51.398;5.466;2023-05-19T06:09:35;102359.03;;;14.19;100.00
9421;BME280;4749;51.398;5.466;2023-05-19T06:12:02;102364.41;;;14.25;100.00
9421;BME280;4749;51.398;5.466;2023-05-19T06:14:29;102362.72;;;14.31;100.00
9421;BME280;4749;51.398;5.466;2023-05-19T06:16:57;102368.16;;;14.44;100.00
9421;BME280;4749;51.398;5.466;2023-05-19T06:19:24;102374.50;;;14.58;100.00
9421;BME280;4749;51.398;5.466;2023-05-19T06:21:51;102371.97;;;14.69;100.00
9421;BME280;4749;51.398;5.466;2023-05-19T06:24:18;102380.97;;;14.86;100.00
9421;BME280;4749;51.398;5.466;2023-05-19T06:26:46;102368.72;;;14.97;100.00
9421;BME280;4749;51.398;5.466;2023-05-19T06:29:13;102370.50;;;15.00;100.00
9421;BME280;4749;51.398;5.466;2023-05-19T06:31:40;102375.00;;;15.10;100.00
9421;BME280;4749;51.398;5.466;2023-05-19T06:34:07;102374.19;;;15.21;100.00
9421;BME280;4749;51.398;5.466;2023-05-19T06:36:38;102372.50;;;15.30;100.00
9421;BME280;4749;51.398;5.466;2023-05-19T06:39:07;102372.59;;;15.40;100.00
9421;BME280;4749;51.398;5.466;2023-05-19T06:41:34;102372.66;;;15.49;100.00
9421;BME280;4749;51.398;5.466;2023-05-19T06:44:02;102371.81;;;15.60;100.00
9421;BME280;4749;51.398;5.466;2023-05-19T06:46:30;102375.41;;;15.63;100.00
9421;BME280;4749;51.398;5.466;2023-05-19T06:48:57;102373.66;;;15.65;100.00
9421;BME280;4749;51.398;5.466;2023-05-19T06:51:24;102373.66;;;15.65;100.00
9421;BME280;4749;51.398;5.466;2023-05-19T06:53:51;102372.75;;;15.63;100.00
9421;BME280;4749;51.398;5.466;2023-05-19T06:56:18;102375.41;;;15.63;100.00
9421;BME280;4749;51.398;5.466;2023-05-19T06:58:45;102377.13;;;15.60;100.00
9421;BME280;4749;51.398;5.466;2023-05-19T07:01:13;102378.00;;;15.56;100.00
9421;BME280;4749;51.398;5.466;2023-05-19T07:03:40;102373.59;;;15.58;100.00
9421;BME280;4749;51.398;5.466;2023-05-19T07:06:07;102370.13;;;15.68;100.00
9421;BME280;4749;51.398;5.466;2023-05-19T07:08:35;102373.75;;;15.82;100.00
9421;BME280;4749;51.398;5.466;2023-05-19T07:11:03;102370.22;;;15.88;100.00
9421;BME280;4749;51.398;5.466;2023-05-19T07:13:31;102367.63;;;15.92;100.00
9421;BME280;4749;51.398;5.466;2023-05-19T07:15:58;102371.19;;;15.99;100.00
9421;BME280;4749;51.398;5.466;2023-05-19T07:18:26;102379.19;;;16.10;100.00
9421;BME280;4749;51.398;5.466;2023-05-19T07:20:53;102372.13;;;16.13;100.00
9421;BME280;4749;51.398;5.466;2023-05-19T07:23:20;102373.88;;;16.13;100.00
9421;BME280;4749;51.398;5.466;2023-05-19T07:25:47;102381.88;;;16.19;100.00
9421;BME280;4749;51.398;5.466;2023-05-19T07:28:14;102376.53;;;16.14;100.00
9421;BME280;4749;51.398;5.466;2023-05-19T07:30:41;102381.00;;;16.17;100.00
9421;BME280;4749;51.398;5.466;2023-05-19T07:33:08;102372.19;;;16.25;100.00
9421;BME280;4749;51.398;5.466;2023-05-19T07:35:36;102372.22;;;16.35;100.00
9421;BME280;4749;51.398;5.466;2023-05-19T07:38:03;102379.31;;;16.45;100.00
9421;BME280;4749;51.398;5.466;2023-05-19T07:40:30;102381.09;;;16.49;100.00
9421;BME280;4749;51.398;5.466;2023-05-19T07:42:58;102378.41;;;16.46;100.00
9421;BME280;4749;51.398;5.466;2023-05-19T07:45:25;102384.63;;;16.48;100.00
9421;BME280;4749;51.398;5.466;2023-05-19T07:47:53;102378.41;;;16.44;100.00
9421;BME280;4749;51.398;5.466;2023-05-19T07:50:20;102379.31;;;16.48;100.00
9421;BME280;4749;51.398;5.466;2023-05-19T07:52:47;102377.56;;;16.54;100.00
9421;BME280;4749;51.398;5.466;2023-05-19T07:55:14;102376.69;;;16.61;100.00
9421;BME280;4749;51.398;5.466;2023-05-19T07:57:41;102372.31;;;16.77;100.00
9421;BME280;4749;51.398;5.466;2023-05-19T08:00:09;102372.34;;;16.96;100.00
9421;BME280;4749;51.398;5.466;2023-05-19T08:02:38;102363.47;;;17.12;100.00
9421;BME280;4749;51.398;5.466;2023-05-19T08:05:06;102365.25;;;17.30;100.00
9421;BME280;4749;51.398;5.466;2023-05-19T08:07:35;102358.13;;;17.44;100.00
9421;BME280;4749;51.398;5.466;2023-05-19T08:10:03;102361.63;;;17.57;100.00
9421;BME280;4749;51.398;5.466;2023-05-19T08:12:31;102365.22;;;17.74;100.00
9421;BME280;4749;51.398;5.466;2023-05-19T08:14:58;102363.38;;;17.85;100.00
9421;BME280;4749;51.398;5.466;2023-05-19T08:17:27;102358.91;;;17.95;97.89
9421;BME280;4749;51.398;5.466;2023-05-19T08:19:54;102356.22;;;18.09;95.92
9421;BME280;4749;51.398;5.466;2023-05-19T08:22:21;102366.75;;;18.27;93.19
9421;BME280;4749;51.398;5.466;2023-05-19T08:24:49;102351.56;;;18.44;90.40
9421;BME280;4749;51.398;5.466;2023-05-19T08:27:17;102352.34;;;18.66;89.43
9421;BME280;4749;51.398;5.466;2023-05-19T08:29:44;102342.44;;;18.85;88.33
9421;BME280;4749;51.398;5.466;2023-05-19T08:32:11;102344.94;;;19.03;86.53
9421;BME280;4749;51.398;5.466;2023-05-19T08:34:39;102341.28;;;19.18;85.05
9421;BME280;4749;51.398;5.466;2023-05-19T08:37:07;102340.28;;;19.25;83.29
9421;BME280;4749;51.398;5.466;2023-05-19T08:39:34;102337.63;;;19.24;81.76
9421;BME280;4749;51.398;5.466;2023-05-19T08:42:01;102336.75;;;19.26;81.36
9421;BME280;4749;51.398;5.466;2023-05-19T08:44:28;102333.09;;;19.33;80.67
9421;BME280;4749;51.398;5.466;2023-05-19T08:47:01;102327.69;;;19.41;80.21
9421;BME280;4749;51.398;5.466;2023-05-19T08:49:36;102327.72;;;19.39;78.81
9421;BME280;4749;51.398;5.466;2023-05-19T08:55:12;102324.91;;;19.50;77.46
9421;BME280;4749;51.398;5.466;2023-05-19T08:57:41;102316.88;;;19.56;76.05
9421;BME280;4749;51.398;5.466;2023-05-19T09:00:09;102321.31;;;19.59;74.87
9421;BME280;4749;51.398;5.466;2023-05-19T09:02:38;102325.66;;;19.69;74.32
9421;BME280;4749;51.398;5.466;2023-05-19T09:05:25;102313.06;;;19.79;72.95
9421;BME280;4749;51.398;5.466;2023-05-19T09:07:53;102309.75;;;19.60;72.43
9421;BME280;4749;51.398;5.466;2023-05-19T09:10:21;102313.13;;;19.74;71.63
9421;BME280;4749;51.398;5.466;2023-05-19T09:12:48;102313.69;;;20.02;70.46
9421;BME280;4749;51.398;5.466;2023-05-19T09:15:18;102318.72;;;20.22;70.44
9421;BME280;4749;51.398;5.466;2023-05-19T09:17:46;102309.78;;;20.24;70.15
9421;BME280;4749;51.398;5.466;2023-05-19T09:20:16;102298.13;;;20.30;69.21
9421;BME280;4749;51.398;5.466;2023-05-19T09:22:44;102303.94;;;20.60;68.14
9421;BME280;4749;51.398;5.466;2023-05-19T09:25:22;102293.72;;;20.85;66.49
9421;BME280;4749;51.398;5.466;2023-05-19T09:27:50;102285.34;;;21.06;65.55
9421;BME280;4749;51.398;5.466;2023-05-19T09:30:17;102286.75;;;21.25;64.96
9421;BME280;4749;51.398;5.466;2023-05-19T09:32:45;102288.19;;;21.46;64.04
9421;BME280;4749;51.398;5.466;2023-05-19T09:35:13;102288.53;;;21.73;64.08
9421;BME280;4749;51.398;5.466;2023-05-19T09:37:46;102281.81;;;21.95;63.37
9421;BME280;4749;51.398;5.466;2023-05-19T09:40:14;102288.75;;;22.04;62.30
9421;BME280;4749;51.398;5.466;2023-05-19T09:42:42;102286.16;;;21.99;61.32
9421;BME280;4749;51.398;5.466;2023-05-19T09:45:10;102294.47;;;21.87;60.71
9421;BME280;4749;51.398;5.466;2023-05-19T09:47:40;102293.88;;;21.73;60.37
9421;BME280;4749;51.398;5.466;2023-05-19T09:50:10;102294.94;;;21.64;60.42
9421;BME280;4749;51.398;5.466;2023-05-19T09:52:39;102292.34;;;21.59;59.74
9421;BME280;4749;51.398;5.466;2023-05-19T09:55:11;102292.63;;;21.47;58.95
9421;BME280;4749;51.398;5.466;2023-05-19T09:57:39;102290.00;;;21.43;58.32
9421;BME280;4749;51.398;5.466;2023-05-19T10:00:09;102297.19;;;21.41;58.55
9421;BME280;4749;51.398;5.466;2023-05-19T10:02:49;102294.44;;;21.44;58.16
9421;BME280;4749;51.398;5.466;2023-05-19T10:05:18;102285.66;;;21.39;57.98
9421;BME280;4749;51.398;5.466;2023-05-19T10:07:50;102281.19;;;21.39;57.29
9421;BME280;4749;51.398;5.466;2023-05-19T10:10:18;102283.72;;;21.47;57.27
9421;BME280;4749;51.398;5.466;2023-05-19T10:12:48;102287.06;;;21.56;57.05
9421;BME280;4749;51.398;5.466;2023-05-19T10:15:17;102292.38;;;21.58;56.80
9421;BME280;4749;51.398;5.466;2023-05-19T10:17:49;102287.13;;;21.55;57.01
9421;BME280;4749;51.398;5.466;2023-05-19T10:20:17;102291.53;;;21.56;56.61
9421;BME280;4749;51.398;5.466;2023-05-19T10:22:45;102292.34;;;21.59;56.48
9421;BME280;4749;51.398;5.466;2023-05-19T10:25:12;102286.91;;;21.64;56.07
9421;BME280;4749;51.398;5.466;2023-05-19T10:28:08;102280.72;;;21.62;55.94
9421;BME280;4749;51.398;5.466;2023-05-19T10:30:41;102268.31;;;21.58;55.80
9421;BME280;4749;51.398;5.466;2023-05-19T10:33:13;102266.56;;;21.57;55.10
9421;BME280;4749;51.398;5.466;2023-05-19T10:39:03;102269.38;;;21.49;54.11
9421;BME280;4749;51.398;5.466;2023-05-19T10:44:59;102276.25;;;21.62;53.82
9421;BME280;4749;51.398;5.466;2023-05-19T10:47:29;102262.91;;;21.61;54.06
9421;BME280;4749;51.398;5.466;2023-05-19T10:49:59;102259.31;;;21.62;53.54
9421;BME280;4749;51.398;5.466;2023-05-19T10:52:27;102265.59;;;21.61;53.93
9421;BME280;4749;51.398;5.466;2023-05-19T10:54:56;102259.19;;;21.67;54.33
9421;BME280;4749;51.398;5.466;2023-05-19T10:57:25;102259.88;;;21.76;53.98
9421;BME280;4749;51.398;5.466;2023-05-19T11:00:01;102263.22;;;21.86;53.96
9421;BME280;4749;51.398;5.466;2023-05-19T11:02:41;102260.72;;;21.80;53.82
9421;BME280;4749;51.398;5.466;2023-05-19T11:05:16;102266.28;;;21.71;53.90
9421;BME280;4749;51.398;5.466;2023-05-19T11:07:59;102262.56;;;21.76;53.46
9421;BME280;4749;51.398;5.466;2023-05-19T11:10:44;102263.28;;;21.84;53.69
9421;BME280;4749;51.398;5.466;2023-05-19T11:13:19;102268.22;;;22.03;53.57
9421;BME280;4749;51.398;5.466;2023-05-19T11:15:48;102253.06;;;22.03;53.28
9421;BME280;4749;51.398;5.466;2023-05-19T11:18:15;102247.53;;;22.11;53.36
9421;BME280;4749;51.398;5.466;2023-05-19T11:20:43;102248.31;;;22.16;52.82
9421;BME280;4749;51.398;5.466;2023-05-19T11:23:25;102256.97;;;22.27;53.04
9421;BME280;4749;51.398;5.466;2023-05-19T11:25:53;102253.25;;;22.34;53.00
9421;BME280;4749;51.398;5.466;2023-05-19T11:28:22;102241.47;;;22.41;53.39
9421;BME280;4749;51.398;5.466;2023-05-19T11:30:55;102245.53;;;22.58;53.61
9421;BME280;4749;51.398;5.466;2023-05-19T11:33:26;102242.56;;;22.68;53.45
9421;BME280;4749;51.398;5.466;2023-05-19T11:35:55;102247.53;;;22.84;52.72
9421;BME280;4749;51.398;5.466;2023-05-19T11:38:27;102247.34;;;22.91;53.15
9421;BME280;4749;51.398;5.466;2023-05-19T11:40:56;102249.78;;;23.00;52.69
9421;BME280;4749;51.398;5.466;2023-05-19T11:43:24;102238.31;;;22.95;52.17
9421;BME280;4749;51.398;5.466;2023-05-19T11:45:53;102234.06;;;22.87;51.77
9421;BME280;4749;51.398;5.466;2023-05-19T11:48:21;102241.31;;;22.82;51.65
9421;BME280;4749;51.398;5.466;2023-05-19T11:50:53;102230.34;;;22.57;52.02
9421;BME280;4749;51.398;5.466;2023-05-19T11:53:23;102232.84;;;22.64;51.68
9421;BME280;4749;51.398;5.466;2023-05-19T11:55:50;102230.00;;;22.70;51.40
9421;BME280;4749;51.398;5.466;2023-05-19T11:58:24;102221.88;;;22.73;51.27
9421;BME280;4749;51.398;5.466;2023-05-19T12:00:53;102219.97;;;22.79;51.45
9421;BME280;4749;51.398;5.466;2023-05-19T12:03:21;102226.94;;;22.87;51.22
9421;BME280;4749;51.398;5.466;2023-05-19T12:05:56;102227.56;;;22.97;51.35
9421;BME280;4749;51.398;5.466;2023-05-19T12:08:24;102224.56;;;23.08;51.38
9421;BME280;4749;51.398;5.466;2023-05-19T12:10:53;102210.00;;;23.16;51.10
9421;BME280;4749;51.398;5.466;2023-05-19T12:13:21;102208.78;;;23.28;51.03
9421;BME280;4749;51.398;5.466;2023-05-19T12:15:50;102203.47;;;23.26;51.03
9421;BME280;4749;51.398;5.466;2023-05-19T12:18:18;102210.41;;;23.34;50.94
9421;BME280;4749;51.398;5.466;2023-05-19T12:20:46;102209.16;;;23.45;51.09
9421;BME280;4749;51.398;5.466;2023-05-19T12:23:13;102214.94;;;23.63;50.85
9421;BME280;4749;51.398;5.466;2023-05-19T12:25:40;102207.47;;;23.74;50.63
9421;BME280;4749;51.398;5.466;2023-05-19T12:28:08;102207.41;;;23.44;50.53
9421;BME280;4749;51.398;5.466;2023-05-19T12:30:35;102204.19;;;23.64;50.67
9421;BME280;4749;51.398;5.466;2023-05-19T12:33:03;102207.88;;;23.90;50.68
9421;BME280;4749;51.398;5.466;2023-05-19T12:35:32;102196.66;;;24.03;50.71
9421;BME280;4749;51.398;5.466;2023-05-19T12:38:04;102190.16;;;24.10;50.33
9421;BME280;4749;51.398;5.466;2023-05-19T12:40:33;102187.41;;;24.13;50.53
9421;BME280;4749;51.398;5.466;2023-05-19T12:43:02;102198.78;;;24.22;50.08
9421;BME280;4749;51.398;5.466;2023-05-19T12:45:34;102201.47;;;24.22;49.78
9421;BME280;4749;51.398;5.466;2023-05-19T12:48:13;102188.09;;;24.19;49.11
9421;BME280;4749;51.398;5.466;2023-05-19T12:50:43;102191.97;;;24.10;49.03
9421;BME280;4749;51.398;5.466;2023-05-19T12:53:11;102181.78;;;23.93;48.95
9421;BME280;4749;51.398;5.466;2023-05-19T12:55:41;102180.91;;;23.93;48.95
9421;BME280;4749;51.398;5.466;2023-05-19T12:58:11;102184.22;;;23.73;48.55
9421;BME280;4749;51.398;5.466;2023-05-19T13:00:41;102186.81;;;23.76;48.26
9421;BME280;4749;51.398;5.466;2023-05-19T13:03:18;102177.56;;;23.84;47.81
9421;BME280;4749;51.398;5.466;2023-05-19T13:05:49;102167.75;;;23.83;48.05
9421;BME280;4749;51.398;5.466;2023-05-19T13:08:21;102168.53;;;23.87;48.10
9421;BME280;4749;51.398;5.466;2023-05-19T13:10:52;102174.66;;;23.92;47.61
9421;BME280;4749;51.398;5.466;2023-05-19T13:13:20;102169.28;;;23.92;47.78
9421;BME280;4749;51.398;5.466;2023-05-19T13:15:47;102164.59;;;23.99;47.92
9421;BME280;4749;51.398;5.466;2023-05-19T13:18:15;102168.78;;;23.79;47.66
9421;BME280;4749;51.398;5.466;2023-05-19T13:20:44;102164.19;;;23.53;48.27
9421;BME280;4749;51.398;5.466;2023-05-19T13:23:13;102152.31;;;23.62;47.99
9421;BME280;4749;51.398;5.466;2023-05-19T13:25:41;102158.50;;;23.66;47.93
9421;BME280;4749;51.398;5.466;2023-05-19T13:28:08;102151.41;;;23.63;47.76
9421;BME280;4749;51.398;5.466;2023-05-19T13:30:39;102148.69;;;23.65;47.62
9421;BME280;4749;51.398;5.466;2023-05-19T13:33:06;102148.56;;;23.68;47.40
9421;BME280;4749;51.398;5.466;2023-05-19T13:35:33;102141.34;;;23.70;47.34